sensor_id;sensor_type;location;lat;lon;timestamp;pressure;altitude;pressure_sealevel;temperature;humidity
66880;BME280;72009;51.392;10.234;2024-03-22T00:00:19;98777.44;;;5.46;100.00
66880;BME280;72009;51.392;10.234;2024-03-22T00:00:40;98771.72;;;5.47;100.00
66880;BME280;72009;51.392;10.234;2024-03-22T00:01:00;98773.38;;;5.48;100.00
66880;BME280;72009;51.392;10.234;2024-03-22T00:01:20;98773.91;;;5.50;100.00
66880;BME280;72009;51.392;10.234;2024-03-22T00:01:40;98767.66;;;5.50;100.00
66880;BME280;72009;51.392;10.234;2024-03-22T00:02:01;98766.53;;;5.51;100.00
66880;BME280;72009;51.392;10.234;2024-03-22T00:02:21;98771.75;;;5.53;100.00
66880;BME280;72009;51.392;10.234;2024-03-22T00:02:41;98769.84;;;5.53;100.00
66880;BME280;72009;51.392;10.234;2024-03-22T00:03:02;98765.22;;;5.54;100.00
66880;BME280;72009;51.392;10.234;2024-03-22T00:03:22;98765.22;;;5.54;100.00
66880;BME280;72009;51.392;10.234;2024-03-22T00:03:42;98764.13;;;5.55;100.00
66880;BME280;72009;51.392;10.234;2024-03-22T00:04:03;98765.22;;;5.54;100.00
66880;BME280;72009;51.392;10.234;2024-03-22T00:04:23;98772.31;;;5.55;100.00
66880;BME280;72009;51.392;10.234;2024-03-22T00:04:43;98773.13;;;5.55;100.00
66880;BME280;72009;51.392;10.234;2024-03-22T00:05:04;98768.47;;;5.56;100.00
66880;BME280;72009;51.392;10.234;2024-03-22T00:05:24;98769.31;;;5.56;100.00
66880;BME280;72009;51.392;10.234;2024-03-22T00:05:44;98767.41;;;5.57;100.00
66880;BME280;72009;51.392;10.234;2024-03-22T00:06:05;98775.59;;;5.57;100.00
66880;BME280;72009;51.392;10.234;2024-03-22T00:06:25;98766.34;;;5.58;100.00
66880;BME280;72009;51.392;10.234;2024-03-22T00:06:47;98764.69;;;5.57;100.00
66880;BME280;72009;51.392;10.234;2024-03-22T00:07:08;98769.88;;;5.58;100.00
66880;BME280;72009;51.392;10.234;2024-03-22T00:07:28;98765.50;;;5.57;100.00
66880;BME280;72009;51.392;10.234;2024-03-22T00:07:48;98773.69;;;5.57;100.00
66880;BME280;72009;51.392;10.234;2024-03-22T00:08:08;98763.59;;;5.58;100.00
66880;BME280;72009;51.392;10.234;2024-03-22T00:08:29;98762.53;;;5.59;100.00
66880;BME280;72009;51.392;10.234;2024-03-22T00:08:49;98765.25;;;5.59;100.00
66880;BME280;72009;51.392;10.234;2024-03-22T00:09:10;98764.16;;;5.60;100.00
66880;BME280;72009;51.392;10.234;2024-03-22T00:09:30;98759.81;;;5.59;100.00
66880;BME280;72009;51.392;10.234;2024-03-22T00:09:51;98758.97;;;5.58;100.00
66880;BME280;72009;51.392;10.234;2024-03-22T00:10:11;98762.53;;;5.59;100.00
66880;BME280;72009;51.392;10.234;2024-03-22T00:10:31;98757.06;;;5.59;100.00
66880;BME280;72009;51.392;10.234;2024-03-22T00:10:52;98759.81;;;5.59;100.00
66880;BME280;72009;51.392;10.234;2024-03-22T00:11:12;98759.81;;;5.59;100.00
66880;BME280;72009;51.392;10.234;2024-03-22T00:11:32;98752.69;;;5.58;100.00
66880;BME280;72009;51.392;10.234;2024-03-22T00:11:52;98758.97;;;5.58;100.00
66880;BME280;72009;51.392;10.234;2024-03-22T00:12:13;98756.22;;;5.58;100.00
66880;BME280;72009;51.392;10.234;2024-03-22T00:12:33;98757.88;;;5.59;100.00
66880;BME280;72009;51.392;10.234;2024-03-22T00:12:53;98747.78;;;5.60;100.00
66880;BME280;72009;51.392;10.234;2024-03-22T00:13:14;98759.53;;;5.60;100.00
66880;BME280;72009;51.392;10.234;2024-03-22T00:13:34;98760.34;;;5.61;100.00
66880;BME280;72009;51.392;10.234;2024-03-22T00:13:54;98752.16;;;5.61;100.00
66880;BME280;72009;51.392;10.234;2024-03-22T00:14:14;98754.09;;;5.60;100.00
66880;BME280;72009;51.392;10.234;2024-03-22T00:14:35;98757.63;;;5.61;100.00
66880;BME280;72009;51.392;10.234;2024-03-22T00:14:55;98755.72;;;5.61;100.00
66880;BME280;72009;51.392;10.234;2024-03-22T00:15:15;98762.00;;;5.62;100.00
66880;BME280;72009;51.392;10.234;2024-03-22T00:15:36;98746.72;;;5.61;100.00
66880;BME280;72009;51.392;10.234;2024-03-22T00:15:56;98759.00;;;5.63;100.00
66880;BME280;72009;51.392;10.234;2024-03-22T00:16:16;98746.44;;;5.62;100.00
66880;BME280;72009;51.392;10.234;2024-03-22T00:16:37;98746.44;;;5.62;100.00
66880;BME280;72009;51.392;10.234;2024-03-22T00:16:57;98743.72;;;5.62;100.00
66880;BME280;72009;51.392;10.234;2024-03-22T00:17:17;98741.00;;;5.62;100.00
66880;BME280;72009;51.392;10.234;2024-03-22T00:17:38;98753.56;;;5.63;100.00
66880;BME280;72009;51.392;10.234;2024-03-22T00:17:58;98742.66;;;5.63;100.00
66880;BME280;72009;51.392;10.234;2024-03-22T00:18:18;98744.25;;;5.64;100.00
66880;BME280;72009;51.392;10.234;2024-03-22T00:18:38;98742.38;;;5.65;100.00
66880;BME280;72009;51.392;10.234;2024-03-22T00:18:59;98750.81;;;5.63;100.00
66880;BME280;72009;51.392;10.234;2024-03-22T00:19:19;98748.09;;;5.63;100.00
66880;BME280;72009;51.392;10.234;2024-03-22T00:19:39;98740.19;;;5.62;100.00
66880;BME280;72009;51.392;10.234;2024-03-22T00:20:00;98736.34;;;5.63;100.00
66880;BME280;72009;51.392;10.234;2024-03-22T00:20:20;98734.72;;;5.62;100.00
66880;BME280;72009;51.392;10.234;2024-03-22T00:20:40;98739.06;;;5.63;100.00
66880;BME280;72009;51.392;10.234;2024-03-22T00:21:01;98741.00;;;5.62;100.00
66880;BME280;72009;51.392;10.234;2024-03-22T00:21:22;98736.59;;;5.61;100.00
66880;BME280;72009;51.392;10.234;2024-03-22T00:21:42;98735.53;;;5.62;100.00
66880;BME280;72009;51.392;10.234;2024-03-22T00:22:03;98730.34;;;5.61;100.00
66880;BME280;72009;51.392;10.234;2024-03-22T00:22:23;98738.00;;;5.64;100.00
66880;BME280;72009;51.392;10.234;2024-03-22T00:22:43;98729.00;;;5.63;100.00
66880;BME280;72009;51.392;10.234;2024-03-22T00:23:04;98729.81;;;5.64;100.00
66880;BME280;72009;51.392;10.234;2024-03-22T00:23:24;98731.47;;;5.65;100.00
66880;BME280;72009;51.392;10.234;2024-03-22T00:23:45;98722.16;;;5.66;100.00
66880;BME280;72009;51.392;10.234;2024-03-22T00:24:05;98729.53;;;5.65;100.00
66880;BME280;72009;51.392;10.234;2024-03-22T00:24:26;98727.63;;;5.66;100.00
66880;BME280;72009;51.392;10.234;2024-03-22T00:24:46;98721.09;;;5.67;100.00
66880;BME280;72009;51.392;10.234;2024-03-22T00:25:06;98729.28;;;5.67;100.00
66880;BME280;72009;51.392;10.234;2024-03-22T00:25:27;98723.81;;;5.67;100.00
66880;BME280;72009;51.392;10.234;2024-03-22T00:25:47;98723.81;;;5.67;100.00
66880;BME280;72009;51.392;10.234;2024-03-22T00:26:07;98726.56;;;5.67;100.00
66880;BME280;72009;51.392;10.234;2024-03-22T00:26:28;98725.47;;;5.68;100.00
66880;BME280;72009;51.392;10.234;2024-03-22T00:26:48;98723.81;;;5.67;100.00
66880;BME280;72009;51.392;10.234;2024-03-22T00:27:08;98728.22;;;5.68;100.00
66880;BME280;72009;51.392;10.234;2024-03-22T00:27:29;98732.56;;;5.69;100.00
66880;BME280;72009;51.392;10.234;2024-03-22T00:27:49;98724.38;;;5.69;100.00
66880;BME280;72009;51.392;10.234;2024-03-22T00:28:09;98729.56;;;5.71;100.00
66880;BME280;72009;51.392;10.234;2024-03-22T00:28:29;98723.28;;;5.70;100.00
66880;BME280;72009;51.392;10.234;2024-03-22T00:28:50;98724.09;;;5.71;100.00
66880;BME280;72009;51.392;10.234;2024-03-22T00:29:10;98724.09;;;5.71;100.00
66880;BME280;72009;51.392;10.234;2024-03-22T00:29:30;98724.94;;;5.71;100.00
66880;BME280;72009;51.392;10.234;2024-03-22T00:29:50;98721.97;;;5.73;100.00
66880;BME280;72009;51.392;10.234;2024-03-22T00:30:11;98721.16;;;5.72;100.00
66880;BME280;72009;51.392;10.234;2024-03-22T00:30:31;98728.22;;;5.73;100.00
66880;BME280;72009;51.392;10.234;2024-03-22T00:30:51;98720.03;;;5.73;100.00
66880;BME280;72009;51.392;10.234;2024-03-22T00:31:12;98718.16;;;5.74;100.00
66880;BME280;72009;51.392;10.234;2024-03-22T00:31:32;98718.69;;;5.76;100.00
66880;BME280;72009;51.392;10.234;2024-03-22T00:31:52;98721.97;;;5.78;100.00
66880;BME280;72009;51.392;10.234;2024-03-22T00:32:12;98722.81;;;5.78;100.00
66880;BME280;72009;51.392;10.234;2024-03-22T00:32:33;98718.97;;;5.79;100.00
66880;BME280;72009;51.392;10.234;2024-03-22T00:32:53;98722.56;;;5.80;100.00
66880;BME280;72009;51.392;10.234;2024-03-22T00:33:13;98719.81;;;5.80;100.00
66880;BME280;72009;51.392;10.234;2024-03-22T00:33:34;98714.09;;;5.81;100.00
66880;BME280;72009;51.392;10.234;2024-03-22T00:33:54;98721.19;;;5.82;100.00
66880;BME280;72009;51.392;10.234;2024-03-22T00:34:14;98715.72;;;5.82;100.00
66880;BME280;72009;51.392;10.234;2024-03-22T00:34:35;98721.19;;;5.82;100.00
66880;BME280;72009;51.392;10.234;2024-03-22T00:34:55;98725.56;;;5.83;100.00
66880;BME280;72009;51.392;10.234;2024-03-22T00:35:16;98717.63;;;5.82;100.00
66880;BME280;72009;51.392;10.234;2024-03-22T00:35:36;98718.44;;;5.82;100.00
66880;BME280;72009;51.392;10.234;2024-03-22T00:35:56;98712.19;;;5.82;100.00
66880;BME280;72009;51.392;10.234;2024-03-22T00:36:16;98714.09;;;5.81;100.00
66880;BME280;72009;51.392;10.234;2024-03-22T00:36:37;98711.38;;;5.81;100.00
66880;BME280;72009;51.392;10.234;2024-03-22T00:36:57;98707.53;;;5.82;100.00
66880;BME280;72009;51.392;10.234;2024-03-22T00:37:17;98716.84;;;5.81;100.00
66880;BME280;72009;51.392;10.234;2024-03-22T00:37:38;98708.91;;;5.80;100.00
66880;BME280;72009;51.392;10.234;2024-03-22T00:37:58;98711.91;;;5.78;100.00
66880;BME280;72009;51.392;10.234;2024-03-22T00:38:18;98708.59;;;5.76;100.00
66880;BME280;72009;51.392;10.234;2024-03-22T00:38:38;98712.16;;;5.77;100.00
66880;BME280;72009;51.392;10.234;2024-03-22T00:38:59;98705.06;;;5.76;100.00
66880;BME280;72009;51.392;10.234;2024-03-22T00:39:19;98710.50;;;5.76;100.00
66880;BME280;72009;51.392;10.234;2024-03-22T00:39:39;98702.59;;;5.74;100.00
66880;BME280;72009;51.392;10.234;2024-03-22T00:39:59;98710.78;;;5.74;100.00
66880;BME280;72009;51.392;10.234;2024-03-22T00:40:20;98715.16;;;5.75;100.00
66880;BME280;72009;51.392;10.234;2024-03-22T00:40:40;98713.50;;;5.74;100.00
66880;BME280;72009;51.392;10.234;2024-03-22T00:41:00;98712.44;;;5.75;100.00
66880;BME280;72009;51.392;10.234;2024-03-22T00:41:21;98714.59;;;5.73;100.00
66880;BME280;72009;51.392;10.234;2024-03-22T00:41:41;98715.41;;;5.74;100.00
66880;BME280;72009;51.392;10.234;2024-03-22T00:42:01;98713.78;;;5.73;100.00
66880;BME280;72009;51.392;10.234;2024-03-22T00:42:22;98707.50;;;5.72;100.00
66880;BME280;72009;51.392;10.234;2024-03-22T00:42:42;98718.16;;;5.74;100.00
66880;BME280;72009;51.392;10.234;2024-03-22T00:43:02;98715.41;;;5.74;100.00
66880;BME280;72009;51.392;10.234;2024-03-22T00:43:23;98705.31;;;5.74;100.00
66880;BME280;72009;51.392;10.234;2024-03-22T00:43:43;98709.97;;;5.74;100.00
66880;BME280;72009;51.392;10.234;2024-03-22T00:44:03;98708.59;;;5.76;100.00
66880;BME280;72009;51.392;10.234;2024-03-22T00:44:24;98712.97;;;5.77;100.00
66880;BME280;72009;51.392;10.234;2024-03-22T00:44:44;98702.88;;;5.78;100.00
66880;BME280;72009;51.392;10.234;2024-03-22T00:45:05;98712.72;;;5.79;100.00
66880;BME280;72009;51.392;10.234;2024-03-22T00:45:25;98703.44;;;5.80;100.00
66880;BME280;72009;51.392;10.234;2024-03-22T00:45:45;98706.97;;;5.80;100.00
66880;BME280;72009;51.392;10.234;2024-03-22T00:46:06;98706.72;;;5.82;100.00
66880;BME280;72009;51.392;10.234;2024-03-22T00:46:26;98704.81;;;5.82;100.00
66880;BME280;72009;51.392;10.234;2024-03-22T00:46:46;98707.31;;;5.84;100.00
66880;BME280;72009;51.392;10.234;2024-03-22T00:47:07;98710.03;;;5.84;100.00
66880;BME280;72009;51.392;10.234;2024-03-22T00:47:27;98702.66;;;5.84;100.00
66880;BME280;72009;51.392;10.234;2024-03-22T00:47:47;98703.47;;;5.85;100.00
66880;BME280;72009;51.392;10.234;2024-03-22T00:48:08;98706.75;;;5.87;100.00
66880;BME280;72009;51.392;10.234;2024-03-22T00:48:29;98704.84;;;5.88;100.00
66880;BME280;72009;51.392;10.234;2024-03-22T00:48:49;98705.66;;;5.88;100.00
66880;BME280;72009;51.392;10.234;2024-03-22T00:49:09;98699.38;;;5.88;100.00
66880;BME280;72009;51.392;10.234;2024-03-22T00:49:30;98707.56;;;5.88;100.00
66880;BME280;72009;51.392;10.234;2024-03-22T00:49:50;98705.66;;;5.88;100.00
66880;BME280;72009;51.392;10.234;2024-03-22T00:50:10;98710.03;;;5.89;100.00
66880;BME280;72009;51.392;10.234;2024-03-22T00:50:31;98703.50;;;5.90;100.00
66880;BME280;72009;51.392;10.234;2024-03-22T00:50:51;98701.59;;;5.91;100.00
66880;BME280;72009;51.392;10.234;2024-03-22T00:51:11;98713.06;;;5.93;100.00
66880;BME280;72009;51.392;10.234;2024-03-22T00:51:32;98704.84;;;5.93;100.00
66880;BME280;72009;51.392;10.234;2024-03-22T00:51:52;98704.84;;;5.93;100.00
66880;BME280;72009;51.392;10.234;2024-03-22T00:52:12;98710.06;;;5.94;100.00
66880;BME280;72009;51.392;10.234;2024-03-22T00:52:32;98700.25;;;5.93;100.00
66880;BME280;72009;51.392;10.234;2024-03-22T00:52:54;98703.53;;;5.95;100.00
66880;BME280;72009;51.392;10.234;2024-03-22T00:53:15;98707.09;;;5.96;100.00
66880;BME280;72009;51.392;10.234;2024-03-22T00:53:35;98707.91;;;5.96;100.00
66880;BME280;72009;51.392;10.234;2024-03-22T00:53:55;98704.91;;;5.98;100.00
66880;BME280;72009;51.392;10.234;2024-03-22T00:54:15;98705.72;;;5.98;100.00
66880;BME280;72009;51.392;10.234;2024-03-22T00:54:36;98711.19;;;5.98;100.00
66880;BME280;72009;51.392;10.234;2024-03-22T00:54:56;98706.28;;;6.00;100.00
66880;BME280;72009;51.392;10.234;2024-03-22T00:55:16;98705.44;;;6.00;100.00
66880;BME280;72009;51.392;10.234;2024-03-22T00:55:37;98707.09;;;6.01;100.00
66880;BME280;72009;51.392;10.234;2024-03-22T00:55:57;98707.91;;;6.01;100.00
66880;BME280;72009;51.392;10.234;2024-03-22T00:56:17;98704.09;;;6.02;100.00
66880;BME280;72009;51.392;10.234;2024-03-22T00:56:38;98703.84;;;6.04;100.00
66880;BME280;72009;51.392;10.234;2024-03-22T00:56:58;98705.50;;;6.05;100.00
66880;BME280;72009;51.392;10.234;2024-03-22T00:57:18;98705.22;;;6.07;100.00
66880;BME280;72009;51.392;10.234;2024-03-22T00:57:38;98707.13;;;6.06;100.00
66880;BME280;72009;51.392;10.234;2024-03-22T00:57:59;98697.84;;;6.07;100.00
66880;BME280;72009;51.392;10.234;2024-03-22T00:58:19;98704.97;;;6.08;100.00
66880;BME280;72009;51.392;10.234;2024-03-22T00:58:40;98700.31;;;6.09;100.00
66880;BME280;72009;51.392;10.234;2024-03-22T00:59:00;98703.88;;;6.09;100.00
66880;BME280;72009;51.392;10.234;2024-03-22T00:59:20;98704.69;;;6.10;100.00
66880;BME280;72009;51.392;10.234;2024-03-22T00:59:40;98707.44;;;6.10;100.00
66880;BME280;72009;51.392;10.234;2024-03-22T01:00:01;98701.97;;;6.10;100.00
66880;BME280;72009;51.392;10.234;2024-03-22T01:00:21;98694.84;;;6.09;100.00
66880;BME280;72009;51.392;10.234;2024-03-22T01:00:41;98699.22;;;6.10;100.00
66880;BME280;72009;51.392;10.234;2024-03-22T01:01:02;98691.84;;;6.10;100.00
66880;BME280;72009;51.392;10.234;2024-03-22T01:01:22;98694.56;;;6.10;100.00
66880;BME280;72009;51.392;10.234;2024-03-22T01:01:42;98704.44;;;6.11;100.00
66880;BME280;72009;51.392;10.234;2024-03-22T01:02:03;98697.31;;;6.10;100.00
66880;BME280;72009;51.392;10.234;2024-03-22T01:02:23;98698.97;;;6.11;100.00
66880;BME280;72009;51.392;10.234;2024-03-22T01:02:44;98698.16;;;6.11;100.00
66880;BME280;72009;51.392;10.234;2024-03-22T01:03:04;98698.16;;;6.11;100.00
66880;BME280;72009;51.392;10.234;2024-03-22T01:03:24;98698.16;;;6.11;100.00
66880;BME280;72009;51.392;10.234;2024-03-22T01:03:45;98693.78;;;6.10;100.00
66880;BME280;72009;51.392;10.234;2024-03-22T01:04:05;98693.78;;;6.10;100.00
66880;BME280;72009;51.392;10.234;2024-03-22T01:04:25;98698.16;;;6.11;100.00
66880;BME280;72009;51.392;10.234;2024-03-22T01:04:46;98701.16;;;6.09;100.00
66880;BME280;72009;51.392;10.234;2024-03-22T01:05:06;98698.41;;;6.09;100.00
66880;BME280;72009;51.392;10.234;2024-03-22T01:05:27;98701.16;;;6.09;100.00
66880;BME280;72009;51.392;10.234;2024-03-22T01:05:47;98696.75;;;6.08;100.00
66880;BME280;72009;51.392;10.234;2024-03-22T01:06:08;98698.41;;;6.09;100.00
66880;BME280;72009;51.392;10.234;2024-03-22T01:06:28;98691.03;;;6.10;100.00
66880;BME280;72009;51.392;10.234;2024-03-22T01:06:48;98695.69;;;6.09;100.00
66880;BME280;72009;51.392;10.234;2024-03-22T01:07:08;98689.13;;;6.10;100.00
66880;BME280;72009;51.392;10.234;2024-03-22T01:07:29;98681.75;;;6.11;100.00
66880;BME280;72009;51.392;10.234;2024-03-22T01:07:49;98686.38;;;6.10;100.00
66880;BME280;72009;51.392;10.234;2024-03-22T01:08:09;98683.38;;;6.12;100.00
66880;BME280;72009;51.392;10.234;2024-03-22T01:08:30;98685.03;;;6.13;100.00
66880;BME280;72009;51.392;10.234;2024-03-22T01:08:50;98685.31;;;6.11;100.00
66880;BME280;72009;51.392;10.234;2024-03-22T01:09:10;98686.97;;;6.12;100.00
66880;BME280;72009;51.392;10.234;2024-03-22T01:09:31;98680.66;;;6.12;100.00
66880;BME280;72009;51.392;10.234;2024-03-22T01:09:51;98683.13;;;6.13;100.00
66880;BME280;72009;51.392;10.234;2024-03-22T01:10:11;98680.38;;;6.13;100.00
66880;BME280;72009;51.392;10.234;2024-03-22T01:10:33;98682.03;;;6.14;100.00
66880;BME280;72009;51.392;10.234;2024-03-22T01:10:53;98684.78;;;6.14;100.00
66880;BME280;72009;51.392;10.234;2024-03-22T01:11:14;98682.03;;;6.14;100.00
66880;BME280;72009;51.392;10.234;2024-03-22T01:11:34;98688.31;;;6.15;100.00
66880;BME280;72009;51.392;10.234;2024-03-22T01:11:54;98677.38;;;6.15;100.00
66880;BME280;72009;51.392;10.234;2024-03-22T01:12:14;98683.69;;;6.15;100.00
66880;BME280;72009;51.392;10.234;2024-03-22T01:12:35;98682.84;;;6.15;100.00
66880;BME280;72009;51.392;10.234;2024-03-22T01:12:55;98677.38;;;6.15;100.00
66880;BME280;72009;51.392;10.234;2024-03-22T01:13:15;98684.50;;;6.16;100.00
66880;BME280;72009;51.392;10.234;2024-03-22T01:13:36;98678.50;;;6.14;100.00
66880;BME280;72009;51.392;10.234;2024-03-22T01:13:56;98675.50;;;6.15;100.00
66880;BME280;72009;51.392;10.234;2024-03-22T01:14:16;98683.44;;;6.17;100.00
66880;BME280;72009;51.392;10.234;2024-03-22T01:14:37;98679.84;;;6.16;100.00
66880;BME280;72009;51.392;10.234;2024-03-22T01:14:57;98676.31;;;6.16;100.00
66880;BME280;72009;51.392;10.234;2024-03-22T01:15:17;98679.03;;;6.16;100.00
66880;BME280;72009;51.392;10.234;2024-03-22T01:15:38;98682.03;;;6.14;100.00
66880;BME280;72009;51.392;10.234;2024-03-22T01:15:58;98683.69;;;6.15;100.00
66880;BME280;72009;51.392;10.234;2024-03-22T01:16:18;98673.84;;;6.14;100.00
66880;BME280;72009;51.392;10.234;2024-03-22T01:16:39;98677.38;;;6.15;100.00
66880;BME280;72009;51.392;10.234;2024-03-22T01:16:59;98684.50;;;6.16;100.00
66880;BME280;72009;51.392;10.234;2024-03-22T01:17:19;98672.19;;;6.13;100.00
66880;BME280;72009;51.392;10.234;2024-03-22T01:17:39;98679.31;;;6.14;100.00
66880;BME280;72009;51.392;10.234;2024-03-22T01:18:00;98671.13;;;6.14;100.00
66880;BME280;72009;51.392;10.234;2024-03-22T01:18:20;98678.22;;;6.15;100.00
66880;BME280;72009;51.392;10.234;2024-03-22T01:18:40;98672.78;;;6.15;100.00
66880;BME280;72009;51.392;10.234;2024-03-22T01:19:00;98672.50;;;6.17;100.00
66880;BME280;72009;51.392;10.234;2024-03-22T01:19:21;98669.78;;;6.17;100.00
66880;BME280;72009;51.392;10.234;2024-03-22T01:19:41;98670.84;;;6.16;100.00
66880;BME280;72009;51.392;10.234;2024-03-22T01:20:01;98674.38;;;6.16;100.00
66880;BME280;72009;51.392;10.234;2024-03-22T01:20:22;98676.03;;;6.17;100.00
66880;BME280;72009;51.392;10.234;2024-03-22T01:20:43;98672.50;;;6.17;100.00
66880;BME280;72009;51.392;10.234;2024-03-22T01:21:03;98675.22;;;6.17;100.00
66880;BME280;72009;51.392;10.234;2024-03-22T01:21:24;98674.38;;;6.16;100.00
66880;BME280;72009;51.392;10.234;2024-03-22T01:21:44;98674.38;;;6.16;100.00
66880;BME280;72009;51.392;10.234;2024-03-22T01:22:04;98676.03;;;6.17;100.00
66880;BME280;72009;51.392;10.234;2024-03-22T01:22:25;98684.25;;;6.17;100.00
66880;BME280;72009;51.392;10.234;2024-03-22T01:22:45;98675.22;;;6.17;100.00
66880;BME280;72009;51.392;10.234;2024-03-22T01:23:05;98669.78;;;6.17;100.00
66880;BME280;72009;51.392;10.234;2024-03-22T01:23:25;98679.84;;;6.16;100.00
66880;BME280;72009;51.392;10.234;2024-03-22T01:23:46;98675.22;;;6.17;100.00
66880;BME280;72009;51.392;10.234;2024-03-22T01:24:06;98673.56;;;6.16;100.00
66880;BME280;72009;51.392;10.234;2024-03-22T01:24:26;98678.78;;;6.17;100.00
66880;BME280;72009;51.392;10.234;2024-03-22T01:24:47;98677.97;;;6.17;100.00
66880;BME280;72009;51.392;10.234;2024-03-22T01:25:07;98675.22;;;6.17;100.00
66880;BME280;72009;51.392;10.234;2024-03-22T01:25:28;98673.56;;;6.16;100.00
66880;BME280;72009;51.392;10.234;2024-03-22T01:25:48;98676.03;;;6.17;100.00
66880;BME280;72009;51.392;10.234;2024-03-22T01:26:08;98672.50;;;6.17;100.00
66880;BME280;72009;51.392;10.234;2024-03-22T01:26:29;98668.94;;;6.16;100.00
66880;BME280;72009;51.392;10.234;2024-03-22T01:26:49;98677.97;;;6.17;100.00
66880;BME280;72009;51.392;10.234;2024-03-22T01:27:09;98669.78;;;6.17;100.00
66880;BME280;72009;51.392;10.234;2024-03-22T01:27:30;98671.38;;;6.18;100.00
66880;BME280;72009;51.392;10.234;2024-03-22T01:27:50;98670.56;;;6.17;100.00
66880;BME280;72009;51.392;10.234;2024-03-22T01:28:10;98667.03;;;6.17;100.00
66880;BME280;72009;51.392;10.234;2024-03-22T01:28:30;98670.56;;;6.17;100.00
66880;BME280;72009;51.392;10.234;2024-03-22T01:28:51;98665.94;;;6.18;100.00
66880;BME280;72009;51.392;10.234;2024-03-22T01:29:13;98663.19;;;6.18;100.00
66880;BME280;72009;51.392;10.234;2024-03-22T01:29:33;98661.56;;;6.17;100.00
66880;BME280;72009;51.392;10.234;2024-03-22T01:29:54;98673.31;;;6.17;100.00
66880;BME280;72009;51.392;10.234;2024-03-22T01:30:14;98668.66;;;6.18;100.00
66880;BME280;72009;51.392;10.234;2024-03-22T01:30:34;98668.94;;;6.16;100.00
66880;BME280;72009;51.392;10.234;2024-03-22T01:30:55;98668.94;;;6.16;100.00
66880;BME280;72009;51.392;10.234;2024-03-22T01:31:15;98667.84;;;6.17;100.00
66880;BME280;72009;51.392;10.234;2024-03-22T01:31:35;98676.31;;;6.16;100.00
66880;BME280;72009;51.392;10.234;2024-03-22T01:31:55;98672.50;;;6.17;100.00
66880;BME280;72009;51.392;10.234;2024-03-22T01:32:16;98673.31;;;6.17;100.00
66880;BME280;72009;51.392;10.234;2024-03-22T01:32:36;98681.50;;;6.17;100.00
66880;BME280;72009;51.392;10.234;2024-03-22T01:32:57;98677.97;;;6.17;100.00
66880;BME280;72009;51.392;10.234;2024-03-22T01:33:17;98675.22;;;6.17;100.00
66880;BME280;72009;51.392;10.234;2024-03-22T01:33:37;98680.69;;;6.17;100.00
66880;BME280;72009;51.392;10.234;2024-03-22T01:33:58;98677.13;;;6.16;100.00
66880;BME280;72009;51.392;10.234;2024-03-22T01:34:18;98675.22;;;6.17;100.00
66880;BME280;72009;51.392;10.234;2024-03-22T01:34:38;98677.97;;;6.17;100.00
66880;BME280;72009;51.392;10.234;2024-03-22T01:34:59;98674.38;;;6.16;100.00
66880;BME280;72009;51.392;10.234;2024-03-22T01:35:19;98677.97;;;6.17;100.00
66880;BME280;72009;51.392;10.234;2024-03-22T01:35:39;98677.97;;;6.17;100.00
66880;BME280;72009;51.392;10.234;2024-03-22T01:36:00;98673.31;;;6.17;100.00
66880;BME280;72009;51.392;10.234;2024-03-22T01:36:20;98679.84;;;6.16;100.00
66880;BME280;72009;51.392;10.234;2024-03-22T01:36:40;98680.69;;;6.17;100.00
66880;BME280;72009;51.392;10.234;2024-03-22T01:37:01;98675.50;;;6.15;100.00
66880;BME280;72009;51.392;10.234;2024-03-22T01:37:21;98679.84;;;6.16;100.00
66880;BME280;72009;51.392;10.234;2024-03-22T01:37:41;98675.22;;;6.17;100.00
66880;BME280;72009;51.392;10.234;2024-03-22T01:38:02;98681.50;;;6.17;100.00
66880;BME280;72009;51.392;10.234;2024-03-22T01:38:22;98680.69;;;6.17;100.00
66880;BME280;72009;51.392;10.234;2024-03-22T01:38:42;98678.78;;;6.17;100.00
66880;BME280;72009;51.392;10.234;2024-03-22T01:39:03;98681.50;;;6.17;100.00
66880;BME280;72009;51.392;10.234;2024-03-22T01:39:23;98682.31;;;6.18;100.00
66880;BME280;72009;51.392;10.234;2024-03-22T01:39:43;98677.97;;;6.17;100.00
66880;BME280;72009;51.392;10.234;2024-03-22T01:40:04;98679.03;;;6.16;100.00
66880;BME280;72009;51.392;10.234;2024-03-22T01:40:24;98685.31;;;6.16;100.00
66880;BME280;72009;51.392;10.234;2024-03-22T01:40:45;98681.78;;;6.16;100.00
66880;BME280;72009;51.392;10.234;2024-03-22T01:41:05;98680.97;;;6.15;100.00
66880;BME280;72009;51.392;10.234;2024-03-22T01:41:25;98683.44;;;6.17;100.00
66880;BME280;72009;51.392;10.234;2024-03-22T01:41:45;98672.50;;;6.17;100.00
66880;BME280;72009;51.392;10.234;2024-03-22T01:42:06;98677.97;;;6.17;100.00
66880;BME280;72009;51.392;10.234;2024-03-22T01:42:26;98680.69;;;6.17;100.00
66880;BME280;72009;51.392;10.234;2024-03-22T01:42:46;98682.31;;;6.18;100.00
66880;BME280;72009;51.392;10.234;2024-03-22T01:43:07;98679.34;;;6.19;100.00
66880;BME280;72009;51.392;10.234;2024-03-22T01:43:27;98685.88;;;6.18;100.00
66880;BME280;72009;51.392;10.234;2024-03-22T01:43:47;98686.69;;;6.19;100.00
66880;BME280;72009;51.392;10.234;2024-03-22T01:44:08;98680.44;;;6.18;100.00
66880;BME280;72009;51.392;10.234;2024-03-22T01:44:29;98687.53;;;6.19;100.00
66880;BME280;72009;51.392;10.234;2024-03-22T01:44:51;98690.28;;;6.19;100.00
66880;BME280;72009;51.392;10.234;2024-03-22T01:45:14;98688.63;;;6.18;100.00
66880;BME280;72009;51.392;10.234;2024-03-22T01:45:35;98688.63;;;6.18;100.00
66880;BME280;72009;51.392;10.234;2024-03-22T01:45:56;98683.16;;;6.18;100.00
66880;BME280;72009;51.392;10.234;2024-03-22T01:46:17;98686.69;;;6.19;100.00
66880;BME280;72009;51.392;10.234;2024-03-22T01:46:37;98676.84;;;6.18;100.00